Time;durP1;ratioP1;P1;durP2;ratioP2;P2;SDS_P1;SDS_P2;PMS_P1;PMS_P2;Temp;Humidity;BMP_temperature;BMP_pressure;BME280_temperature;BME280_humidity;BME280_pressure;Samples;Min_cycle;Max_cycle;Signal;HPM_P1;HPM_P2
2022/12/06 06:03:45;;;;;;;11.07;6.65;;;5.10;99.90;;;;;;4845656;27;20050;-75
2022/12/06 06:06:10;;;;;;;9.93;6.82;;;5.10;99.90;;;;;;4851513;29;20034;-74
2022/12/06 06:08:36;;;;;;;14.90;6.78;;;5.10;99.90;;;;;;4851248;29;20322;-75
2022/12/06 06:11:02;;;;;;;12.65;6.95;;;5.10;99.90;;;;;;4851227;29;20082;-75
2022/12/06 06:13:27;;;;;;;13.23;7.90;;;5.10;99.90;;;;;;4835052;29;20081;-74
2022/12/06 06:15:53;;;;;;;11.13;7.10;;;5.10;99.90;;;;;;4851457;29;20030;-76
2022/12/06 06:18:19;;;;;;;11.13;6.43;;;5.10;99.90;;;;;;4851311;29;20215;-76
2022/12/06 06:20:50;;;;;;;14.65;7.65;;;5.10;99.90;;;;;;4820246;29;20098;-76
2022/12/06 06:23:16;;;;;;;17.23;8.95;;;5.10;99.90;;;;;;4852698;29;20042;-74
2022/12/06 06:25:42;;;;;;;17.42;9.10;;;5.00;99.90;;;;;;4834777;29;20030;-75
2022/12/06 06:28:07;;;;;;;18.10;8.50;;;5.10;99.90;;;;;;4851809;29;20045;-75
2022/12/06 06:30:33;;;;;;;16.63;8.90;;;5.00;99.90;;;;;;4850862;29;20098;-75
2022/12/06 06:32:59;;;;;;;20.73;8.95;;;5.00;99.90;;;;;;4851028;29;20196;-75
2022/12/06 06:35:25;;;;;;;18.85;8.50;;;5.00;99.90;;;;;;4850783;29;20030;-75
2022/12/06 06:37:50;;;;;;;20.83;9.57;;;5.00;99.90;;;;;;4835155;29;20030;-75
2022/12/06 06:40:16;;;;;;;20.90;9.27;;;5.00;99.90;;;;;;4820026;29;20029;-77
2022/12/06 06:42:42;;;;;;;19.70;9.02;;;5.00;99.90;;;;;;4834778;29;20074;-74
2022/12/06 06:45:08;;;;;;;17.10;8.00;;;5.00;99.90;;;;;;4851134;29;20379;-75
2022/12/06 06:47:34;;;;;;;34.08;16.60;;;5.10;99.90;;;;;;4851177;29;20034;-75
2022/12/06 06:50:00;;;;;;;38.38;22.83;;;5.00;99.90;;;;;;4851072;29;20084;-75
2022/12/06 06:52:25;;;;;;;20.00;10.15;;;5.00;99.90;;;;;;4850895;29;20030;-75
2022/12/06 06:54:51;;;;;;;15.90;8.30;;;5.10;99.90;;;;;;4851071;29;20220;-75
2022/12/06 06:57:17;;;;;;;17.05;7.97;;;5.10;99.90;;;;;;4850641;29;20037;-75
2022/12/06 06:59:44;;;;;;;17.55;7.70;;;5.10;99.90;;;;;;4850385;29;20304;-75
2022/12/06 07:02:13;;;;;;;16.20;7.90;;;5.10;99.90;;;;;;4836831;29;20053;-75
2022/12/06 07:04:40;;;;;;;17.30;8.25;;;5.10;99.90;;;;;;4837923;29;20034;-75
2022/12/06 07:07:05;;;;;;;12.80;7.15;;;5.10;99.90;;;;;;4854310;29;20387;-75
2022/12/06 07:09:31;;;;;;;11.77;6.95;;;5.10;99.90;;;;;;4854384;29;20034;-75
2022/12/06 07:11:57;;;;;;;15.13;7.72;;;5.10;99.90;;;;;;4838249;29;20045;-75
2022/12/06 07:14:23;;;;;;;14.05;7.80;;;5.10;99.90;;;;;;4854547;29;20210;-75
2022/12/06 07:16:48;;;;;;;13.82;7.90;;;5.20;99.90;;;;;;4854548;29;20033;-75
2022/12/06 07:19:14;;;;;;;13.50;7.68;;;5.20;99.90;;;;;;4854748;29;20106;-75
2022/12/06 07:21:40;;;;;;;12.85;7.53;;;5.20;99.90;;;;;;4854038;29;20030;-75
2022/12/06 07:24:09;;;;;;;15.70;7.53;;;5.20;99.90;;;;;;4854210;29;20037;-78
2022/12/06 07:26:44;;;;;;;13.95;7.25;;;5.30;99.90;;;;;;4853858;29;20350;-77
2022/12/06 07:29:10;;;;;;;10.75;6.80;;;5.30;99.90;;;;;;4838525;29;20029;-78
2022/12/06 07:31:35;;;;;;;11.90;6.25;;;5.30;99.90;;;;;;4854998;29;20219;-80
2022/12/06 07:34:02;;;;;;;12.45;6.45;;;5.40;99.90;;;;;;4830315;29;20051;-79
2022/12/06 07:36:31;;;;;;;12.90;7.22;;;5.40;99.90;;;;;;4841614;29;20033;-79
2022/12/06 07:38:58;;;;;;;12.10;7.13;;;5.40;99.90;;;;;;4855558;29;20121;-78
2022/12/06 07:47:15;;;;;;;14.02;6.65;;;5.40;99.90;;;;;;4853830;29;20852;-76
2022/12/06 07:49:41;;;;;;;16.08;7.22;;;5.30;99.90;;;;;;4853191;29;20033;-76
2022/12/06 07:52:06;;;;;;;20.48;7.80;;;5.30;99.90;;;;;;4836289;29;20058;-76
2022/12/06 07:54:33;;;;;;;14.68;7.68;;;5.40;99.90;;;;;;4852454;29;20042;-76
2022/12/06 07:56:58;;;;;;;15.73;7.50;;;5.40;99.90;;;;;;4852456;29;20094;-76
2022/12/06 07:59:25;;;;;;;12.10;6.45;;;5.50;99.90;;;;;;4852810;29;20512;-76
2022/12/06 08:01:51;;;;;;;14.00;6.80;;;5.50;99.90;;;;;;4837289;29;20086;-76
2022/12/06 08:04:17;;;;;;;12.55;6.25;;;5.50;99.90;;;;;;4852718;29;20277;-75
2022/12/06 08:06:44;;;;;;;14.95;7.15;;;5.50;99.90;;;;;;4851992;29;20034;-75
2022/12/06 08:09:11;;;;;;;14.07;5.90;;;5.50;99.90;;;;;;4836250;29;20038;-75
2022/12/06 08:11:36;;;;;;;11.57;5.72;;;5.60;99.90;;;;;;4852165;29;20030;-75
2022/12/06 08:14:03;;;;;;;12.45;6.05;;;5.60;99.90;;;;;;4850802;29;20030;-75
2022/12/06 08:16:29;;;;;;;11.70;6.22;;;5.60;99.90;;;;;;4835658;29;20033;-76
2022/12/06 08:18:56;;;;;;;11.73;6.68;;;5.70;99.90;;;;;;4852495;29;20076;-76
2022/12/06 08:21:24;;;;;;;13.93;5.85;;;5.70;99.90;;;;;;4852581;29;20081;-75
2022/12/06 08:23:51;;;;;;;10.15;5.38;;;5.70;99.90;;;;;;4852762;29;20041;-75
2022/12/06 08:26:17;;;;;;;10.95;5.90;;;5.70;99.90;;;;;;4852519;29;20090;-75
2022/12/06 08:28:43;;;;;;;9.77;6.22;;;5.70;99.90;;;;;;4851847;29;20069;-76
2022/12/06 08:31:29;;;;;;;10.27;5.68;;;5.70;99.90;;;;;;4852376;29;20030;-74
2022/12/06 08:33:57;;;;;;;7.25;4.50;;;5.70;99.90;;;;;;4852443;29;20074;-78
2022/12/06 08:36:23;;;;;;;7.57;4.68;;;5.60;99.90;;;;;;4850924;29;20049;-76
2022/12/06 08:38:50;;;;;;;7.50;4.47;;;5.60;99.90;;;;;;4835185;29;20038;-76
2022/12/06 08:44:02;;;;;;;7.95;4.10;;;5.70;99.90;;;;;;4852133;29;20048;-74
2022/12/06 08:46:30;;;;;;;7.10;4.43;;;5.70;99.90;;;;;;4851655;29;20049;-75
2022/12/06 08:48:56;;;;;;;7.53;4.68;;;5.70;99.90;;;;;;4835827;29;20216;-75
2022/12/06 08:51:22;;;;;;;6.30;4.00;;;5.70;99.90;;;;;;4835518;29;20151;-75
2022/12/06 08:53:48;;;;;;;8.20;4.80;;;5.70;99.90;;;;;;4851715;29;20307;-74
2022/12/06 08:56:14;;;;;;;8.15;5.25;;;5.60;99.90;;;;;;4851918;29;20022;-74
2022/12/06 08:58:40;;;;;;;9.32;5.40;;;5.70;99.90;;;;;;4851200;29;20038;-74
2022/12/06 09:01:19;;;;;;;7.07;4.85;;;5.60;99.90;;;;;;4851709;29;20030;-74
2022/12/06 09:03:45;;;;;;;7.88;5.00;;;5.60;99.90;;;;;;4850963;29;20476;-74
2022/12/06 09:06:10;;;;;;;8.55;5.35;;;5.60;99.90;;;;;;4851396;29;20111;-74
2022/12/06 09:08:38;;;;;;;9.50;4.95;;;5.70;99.90;;;;;;4850729;29;20123;-73
2022/12/06 09:11:05;;;;;;;8.87;4.60;;;5.70;99.90;;;;;;4851271;29;20040;-73
2022/12/06 09:13:31;;;;;;;7.65;5.20;;;5.70;99.90;;;;;;4851304;29;20097;-73
2022/12/06 09:15:57;;;;;;;9.05;4.97;;;5.70;99.90;;;;;;4832709;29;20038;-73
2022/12/06 09:18:23;;;;;;;7.75;5.22;;;5.70;99.90;;;;;;4833021;29;20039;-74
2022/12/06 09:20:49;;;;;;;8.65;5.47;;;5.80;99.90;;;;;;4832705;29;20041;-76
2022/12/06 09:23:15;;;;;;;8.55;5.20;;;5.80;99.90;;;;;;4824591;29;20036;-74
2022/12/06 09:25:41;;;;;;;9.63;5.72;;;5.80;99.90;;;;;;4832223;29;20307;-76
2022/12/06 09:28:07;;;;;;;8.32;5.32;;;5.80;99.90;;;;;;4832846;29;20026;-74
2022/12/06 09:30:33;;;;;;;9.07;5.75;;;5.80;99.90;;;;;;4832253;29;20273;-75
2022/12/06 09:32:59;;;;;;;8.48;5.88;;;5.90;99.90;;;;;;4833055;29;20037;-75
2022/12/06 09:35:25;;;;;;;10.48;6.20;;;6.00;99.90;;;;;;4833132;29;20156;-74
2022/12/06 09:37:51;;;;;;;9.50;6.20;;;6.00;99.90;;;;;;4833061;29;20057;-75
2022/12/06 09:40:30;;;;;;;11.48;6.35;;;6.00;99.90;;;;;;4832872;29;20030;-74
2022/12/06 09:43:21;;;;;;;9.98;6.57;;;6.00;99.90;;;;;;4832960;29;20250;-76
2022/12/06 09:46:00;;;;;;;10.55;6.60;;;6.00;99.90;;;;;;4833101;29;20297;-73
2022/12/06 09:49:13;;;;;;;11.18;6.38;;;6.00;99.90;;;;;;4812912;29;20034;-75
2022/12/06 09:52:21;;;;;;;11.18;6.85;;;6.00;99.90;;;;;;4792073;29;20034;-76
2022/12/06 09:55:01;;;;;;;10.13;6.57;;;6.00;99.90;;;;;;4816623;29;20388;-75
2022/12/06 09:57:57;;;;;;;12.23;7.50;;;6.00;99.90;;;;;;4836580;29;20268;-78
2022/12/06 10:00:52;;;;;;;11.32;7.30;;;5.80;99.90;;;;;;4850979;29;20033;-77
2022/12/06 10:03:34;;;;;;;12.85;7.45;;;5.70;99.90;;;;;;4845388;29;20114;-76
2022/12/06 10:06:08;;;;;;;12.20;7.88;;;5.70;99.90;;;;;;4850825;29;20034;-77
2022/12/06 10:08:49;;;;;;;14.40;8.32;;;5.80;99.90;;;;;;4834301;29;20048;-79
2022/12/06 10:11:33;;;;;;;15.40;8.85;;;5.80;99.90;;;;;;4834765;29;20026;-77
2022/12/06 10:14:00;;;;;;;14.20;9.40;;;6.00;99.90;;;;;;4850581;29;20219;-77
2022/12/06 10:16:49;;;;;;;15.48;9.15;;;6.00;99.90;;;;;;4834151;29;20033;-77
2022/12/06 10:19:33;;;;;;;13.70;8.85;;;6.00;99.90;;;;;;4834631;29;20216;-76
2022/12/06 10:22:22;;;;;;;11.85;8.25;;;6.00;99.90;;;;;;4834659;29;20067;-77
2022/12/06 10:25:29;;;;;;;16.77;9.98;;;6.10;99.90;;;;;;4850063;29;20070;-76
2022/12/06 10:28:40;;;;;;;14.70;9.40;;;6.20;99.90;;;;;;4834148;29;20215;-78
2022/12/06 10:31:19;;;;;;;16.45;10.23;;;6.10;99.90;;;;;;4815220;29;20050;-75
2022/12/06 10:34:34;;;;;;;16.08;9.73;;;6.10;99.90;;;;;;4849274;29;20033;-75
2022/12/06 10:37:35;;;;;;;15.02;9.23;;;6.10;99.90;;;;;;4837507;29;20232;-76
2022/12/06 10:40:17;;;;;;;13.57;8.75;;;6.00;99.90;;;;;;4818123;29;20050;-76
2022/12/06 10:43:11;;;;;;;15.07;9.07;;;6.00;99.90;;;;;;4831972;29;20026;-77
2022/12/06 10:48:59;;;;;;;13.82;8.45;;;6.00;99.90;;;;;;4831782;29;20088;-76
2022/12/06 10:51:36;;;;;;;14.25;8.50;;;5.90;99.90;;;;;;4830816;29;20035;-76
2022/12/06 10:54:12;;;;;;;12.23;7.85;;;5.80;99.90;;;;;;4830945;29;20038;-76
2022/12/06 10:56:40;;;;;;;16.45;9.13;;;5.80;99.90;;;;;;4831652;29;20042;-76
2022/12/06 10:59:17;;;;;;;13.27;8.02;;;5.80;99.90;;;;;;4848265;29;20339;-76
2022/12/06 11:01:45;;;;;;;14.40;7.75;;;5.70;99.90;;;;;;4833802;29;20117;-78
2022/12/06 11:04:27;;;;;;;13.82;7.50;;;5.70;99.90;;;;;;4818543;29;20109;-77
2022/12/06 11:07:11;;;;;;;14.50;7.80;;;5.60;99.90;;;;;;4850598;29;20029;-76
2022/12/06 11:09:45;;;;;;;13.93;7.57;;;5.60;99.90;;;;;;4839739;29;20324;-77
2022/12/06 11:12:32;;;;;;;13.05;7.75;;;5.60;99.90;;;;;;4821716;29;20101;-75
2022/12/06 11:15:38;;;;;;;11.35;6.60;;;5.60;99.90;;;;;;4836329;29;20040;-78
2022/12/06 11:18:11;;;;;;;12.73;8.15;;;5.70;99.90;;;;;;4851997;29;20033;-78
2022/12/06 11:21:12;;;;;;;14.07;7.28;;;5.70;99.90;;;;;;4850911;29;20112;-76
2022/12/06 11:23:50;;;;;;;11.88;7.35;;;5.70;99.90;;;;;;4817964;29;20034;-79
2022/12/06 11:26:50;;;;;;;13.60;7.63;;;5.70;99.90;;;;;;4831075;29;20077;-76
2022/12/06 11:29:41;;;;;;;12.25;7.10;;;5.60;99.90;;;;;;4848070;29;20045;-76
2022/12/06 11:32:08;;;;;;;10.57;5.78;;;5.60;99.90;;;;;;4837495;29;20038;-75
2022/12/06 11:34:47;;;;;;;12.73;6.78;;;5.60;99.90;;;;;;4832678;29;20029;-77
2022/12/06 11:37:22;;;;;;;10.80;6.32;;;5.50;99.90;;;;;;4849185;29;20034;-77
2022/12/06 11:39:51;;;;;;;11.88;7.22;;;5.50;99.90;;;;;;4849032;29;20026;-76
2022/12/06 11:42:26;;;;;;;12.13;6.15;;;5.50;99.90;;;;;;4833317;29;20030;-77
2022/12/06 11:45:17;;;;;;;10.77;6.07;;;5.50;99.90;;;;;;4849239;29;20066;-77
2022/12/06 11:47:43;;;;;;;10.50;5.82;;;5.50;99.90;;;;;;4849477;29;20039;-77
2022/12/06 11:50:15;;;;;;;9.68;5.60;;;5.40;99.90;;;;;;4852851;29;20042;-76
2022/12/06 11:52:48;;;;;;;8.27;5.55;;;5.40;99.90;;;;;;4835848;29;20037;-76
2022/12/06 11:55:28;;;;;;;8.55;4.72;;;5.40;99.90;;;;;;4851168;29;20216;-76
2022/12/06 11:58:05;;;;;;;8.80;4.22;;;5.40;99.90;;;;;;4835847;29;20042;-75
2022/12/06 12:00:31;;;;;;;8.88;5.25;;;5.40;99.90;;;;;;4851982;29;20082;-76
2022/12/06 12:02:57;;;;;;;10.07;5.60;;;5.40;99.90;;;;;;4852442;29;20271;-75
2022/12/06 12:05:35;;;;;;;8.60;4.88;;;5.50;99.90;;;;;;4836323;29;20105;-76
2022/12/06 12:08:18;;;;;;;9.50;4.95;;;5.50;99.90;;;;;;4852780;29;20360;-76
2022/12/06 12:10:59;;;;;;;8.10;4.50;;;5.40;99.90;;;;;;4836348;29;20053;-77
2022/12/06 12:13:45;;;;;;;7.72;4.40;;;5.40;99.90;;;;;;4835758;29;20026;-76
2022/12/06 12:16:16;;;;;;;9.55;4.38;;;5.40;99.90;;;;;;4851945;29;20052;-77
2022/12/06 12:19:04;;;;;;;7.28;3.40;;;5.40;99.90;;;;;;4835039;29;20311;-76
2022/12/06 12:21:39;;;;;;;7.75;3.75;;;5.40;99.90;;;;;;4852040;29;20037;-76
2022/12/06 12:24:41;;;;;;;8.88;4.00;;;5.30;99.90;;;;;;4835300;29;20100;-75
2022/12/06 12:27:54;;;;;;;7.32;3.97;;;5.20;99.90;;;;;;4851970;29;20082;-77
2022/12/06 12:30:23;;;;;;;8.20;3.90;;;5.20;99.90;;;;;;4814428;29;20048;-76
2022/12/06 12:33:11;;;;;;;8.45;4.25;;;5.10;99.90;;;;;;4850986;29;20042;-76
2022/12/06 12:35:43;;;;;;;6.97;4.03;;;5.20;99.90;;;;;;4819156;29;20054;-77
2022/12/06 12:38:09;;;;;;;8.15;3.90;;;5.20;99.90;;;;;;4846634;29;20033;-76
2022/12/06 12:40:41;;;;;;;7.25;4.10;;;5.10;99.90;;;;;;4834569;29;20095;-76
2022/12/06 12:43:10;;;;;;;7.55;3.58;;;5.20;99.90;;;;;;4835626;29;20026;-80
2022/12/06 12:45:38;;;;;;;;;;;5.10;99.90;;;;;;4852088;29;20026;-79
2022/12/06 12:48:19;;;;;;;;;;;5.10;99.90;;;;;;4835904;29;19908;-76
2022/12/06 12:50:57;;;;;;;6.95;3.40;;;5.10;99.90;;;;;;4832722;29;20088;-75
2022/12/06 12:53:38;;;;;;;6.72;3.92;;;5.00;99.90;;;;;;4833313;29;20197;-76
2022/12/06 12:56:15;;;;;;;9.00;4.85;;;5.10;99.90;;;;;;4833520;29;20091;-75
2022/12/06 12:58:43;;;;;;;8.35;4.05;;;5.00;99.90;;;;;;4845164;29;20030;-75
2022/12/06 13:01:23;;;;;;;6.45;4.20;;;5.00;99.90;;;;;;4851720;29;20324;-76
2022/12/06 13:04:09;;;;;;;8.98;4.47;;;4.90;99.90;;;;;;4834682;29;20379;-76
2022/12/06 13:07:03;;;;;;;10.02;4.90;;;5.00;99.90;;;;;;4850902;29;20079;-76
2022/12/06 13:09:55;;;;;;;6.47;4.00;;;4.90;99.90;;;;;;4851195;29;20060;-75
2022/12/06 13:12:42;;;;;;;7.88;4.25;;;4.90;99.90;;;;;;4851350;29;20330;-78
2022/12/06 13:15:17;;;;;;;6.47;3.60;;;4.90;99.90;;;;;;4835518;29;20030;-80
2022/12/06 13:17:52;;;;;;;7.70;4.10;;;4.90;99.90;;;;;;4851088;29;20029;-78
2022/12/06 13:20:25;;;;;;;6.03;3.47;;;4.90;99.90;;;;;;4836040;29;20050;-77
2022/12/06 13:23:17;;;;;;;7.70;4.00;;;4.90;99.90;;;;;;4817008;29;20034;-78
2022/12/06 13:26:06;;;;;;;7.68;3.92;;;4.90;99.90;;;;;;4831506;29;20045;-78
2022/12/06 13:28:38;;;;;;;6.60;4.00;;;4.90;99.90;;;;;;4832444;29;20110;-78
2022/12/06 13:31:12;;;;;;;8.10;4.40;;;4.90;99.90;;;;;;4848897;29;20211;-76
2022/12/06 13:33:45;;;;;;;8.63;4.18;;;4.90;99.90;;;;;;4850660;29;20044;-75
2022/12/06 13:36:14;;;;;;;7.68;4.10;;;4.90;99.90;;;;;;4834885;29;20040;-76
2022/12/06 13:38:40;;;;;;;6.47;4.32;;;4.90;99.90;;;;;;4850055;29;20054;-78
2022/12/06 13:42:16;;;;;;;8.63;4.32;;;5.00;99.90;;;;;;4834180;29;20146;-76
2022/12/06 13:44:00;;;;;;;6.03;4.03;;;5.00;99.90;;;;;;4833389;29;20049;-78
2022/12/06 13:46:28;;;;;;;6.75;3.80;;;5.10;99.90;;;;;;4850556;29;20220;-76
2022/12/06 13:49:06;;;;;;;6.75;3.95;;;5.10;99.90;;;;;;4850075;29;20097;-76
2022/12/06 13:51:33;;;;;;;;;;;5.10;99.90;;;;;;4819624;29;20323;-79
2022/12/06 13:54:05;;;;;;;6.60;3.95;;;5.10;99.90;;;;;;4834181;29;20097;-76
2022/12/06 13:56:33;;;;;;;5.82;3.80;;;5.10;99.90;;;;;;4851707;29;20053;-79
2022/12/06 13:59:10;;;;;;;6.50;4.45;;;5.20;99.90;;;;;;4833557;29;20042;-77
2022/12/06 14:01:35;;;;;;;7.05;4.40;;;5.10;99.90;;;;;;4833255;29;20045;-77
2022/12/06 14:04:07;;;;;;;6.07;4.28;;;5.10;99.90;;;;;;4849597;29;20097;-77
2022/12/06 14:06:45;;;;;;;8.00;4.70;;;5.10;99.90;;;;;;4850595;29;20146;-76
2022/12/06 14:09:12;;;;;;;7.00;4.70;;;5.10;99.90;;;;;;4850307;29;20231;-76
2022/12/06 14:11:38;;;;;;;10.38;4.57;;;5.10;99.90;;;;;;4848975;29;20053;-75
2022/12/06 14:14:13;;;;;;;5.35;3.33;;;5.20;99.90;;;;;;4850130;29;20418;-77
2022/12/06 14:16:45;;;;;;;4.75;2.97;;;5.10;99.90;;;;;;4849862;29;20231;-77
2022/12/06 14:19:13;;;;;;;5.35;3.55;;;5.10;99.90;;;;;;4834041;29;20036;-76
2022/12/06 14:21:42;;;;;;;5.22;3.20;;;5.10;99.90;;;;;;4849952;29;20029;-78
2022/12/06 14:24:26;;;;;;;5.68;3.30;;;5.00;99.90;;;;;;4850433;29;20339;-76
2022/12/06 14:26:52;;;;;;;4.60;3.17;;;5.00;99.90;;;;;;4850040;29;20323;-79
2022/12/06 14:29:22;;;;;;;5.75;3.53;;;5.00;99.90;;;;;;4849722;29;20148;-79
2022/12/06 14:31:50;;;;;;;5.88;3.30;;;4.90;99.90;;;;;;4849708;29;20033;-78
2022/12/06 14:34:27;;;;;;;4.82;3.38;;;4.90;99.90;;;;;;4850524;29;20033;-76
2022/12/06 14:36:53;;;;;;;5.90;3.67;;;4.90;99.90;;;;;;4833465;29;20064;-76
2022/12/06 14:39:25;;;;;;;5.60;3.13;;;4.90;99.90;;;;;;4849795;29;20037;-76
2022/12/06 14:44:38;;;;;;;5.07;3.20;;;4.90;99.90;;;;;;4833327;29;20158;-78
2022/12/06 14:47:05;;;;;;;6.50;3.35;;;4.80;99.90;;;;;;4817718;29;20113;-77
2022/12/06 14:52:23;;;;;;;6.82;3.38;;;4.90;99.90;;;;;;4849854;29;20029;-77
2022/12/06 14:54:50;;;;;;;5.60;3.55;;;4.80;99.90;;;;;;4849042;29;20037;-78
2022/12/06 14:57:25;;;;;;;6.57;4.03;;;4.70;99.90;;;;;;4833369;29;20334;-75
2022/12/06 15:00:13;;;;;;;6.93;4.28;;;4.70;99.90;;;;;;4849633;29;20026;-77
2022/12/06 15:02:40;;;;;;;8.32;4.20;;;4.70;99.90;;;;;;4848744;29;20259;-76
2022/12/06 15:05:30;;;;;;;7.85;3.63;;;4.70;99.90;;;;;;4850181;29;20034;-78
2022/12/06 15:07:56;;;;;;;6.72;3.80;;;4.70;99.90;;;;;;4849206;29;20037;-79
2022/12/06 15:10:31;;;;;;;7.32;4.28;;;4.70;99.90;;;;;;4833112;29;20098;-77
2022/12/06 15:13:13;;;;;;;6.53;3.97;;;4.70;99.90;;;;;;4818100;29;20021;-77
2022/12/06 15:15:45;;;;;;;5.65;3.60;;;4.70;99.90;;;;;;4833131;29;20097;-77
2022/12/06 15:18:26;;;;;;;5.60;3.65;;;4.70;99.90;;;;;;4847857;29;20114;-78
2022/12/06 15:20:54;;;;;;;7.03;4.05;;;4.70;99.90;;;;;;4814162;29;20045;-76
2022/12/06 15:23:34;;;;;;;6.75;4.15;;;4.70;99.90;;;;;;4852383;29;20045;-77
2022/12/06 15:26:01;;;;;;;7.05;4.40;;;4.70;99.90;;;;;;4853170;29;20030;-75
2022/12/06 15:28:27;;;;;;;7.07;4.47;;;4.70;99.90;;;;;;4836676;29;20029;-78
2022/12/06 15:30:53;;;;;;;8.35;4.35;;;4.70;99.90;;;;;;4852733;29;20257;-76
2022/12/06 15:33:21;;;;;;;6.53;4.10;;;4.70;99.90;;;;;;4836582;29;20096;-76
2022/12/06 15:35:48;;;;;;;7.57;4.85;;;4.70;99.90;;;;;;4821261;29;20022;-78
2022/12/06 15:38:14;;;;;;;9.02;5.00;;;4.70;99.90;;;;;;4836124;29;20058;-77
2022/12/06 15:40:42;;;;;;;7.30;4.50;;;4.70;99.90;;;;;;4852416;29;20045;-77
2022/12/06 15:43:25;;;;;;;7.20;4.65;;;4.60;99.90;;;;;;4853078;29;20025;-77
2022/12/06 15:45:59;;;;;;;7.65;4.85;;;4.70;99.90;;;;;;4836223;29;20102;-77
2022/12/06 15:48:26;;;;;;;7.68;4.60;;;4.70;99.90;;;;;;4821031;29;20032;-76
2022/12/06 15:50:55;;;;;;;7.88;4.47;;;4.60;99.90;;;;;;4835776;29;20042;-77
2022/12/06 15:53:23;;;;;;;7.47;4.50;;;4.70;99.90;;;;;;4818485;29;20062;-75
2022/12/06 15:55:51;;;;;;;6.78;4.65;;;4.70;99.90;;;;;;4834525;29;20235;-76
2022/12/06 15:58:17;;;;;;;9.95;5.18;;;4.70;99.90;;;;;;4849344;29;20103;-76
2022/12/06 16:00:45;;;;;;;9.05;5.13;;;4.70;99.90;;;;;;4832562;29;20351;-76
2022/12/06 16:03:11;;;;;;;8.52;4.90;;;4.70;99.90;;;;;;4834027;29;20371;-76
2022/12/06 16:05:45;;;;;;;7.65;4.72;;;4.70;99.90;;;;;;4818252;29;20026;-76
2022/12/06 16:08:11;;;;;;;7.30;4.57;;;4.60;99.90;;;;;;4832826;29;20026;-76
2022/12/06 16:10:36;;;;;;;8.25;5.05;;;4.70;99.90;;;;;;4833442;29;20061;-77
2022/12/06 16:13:20;;;;;;;7.28;5.03;;;4.70;99.90;;;;;;4833631;29;20224;-76
2022/12/06 16:15:46;;;;;;;9.23;5.32;;;4.70;99.90;;;;;;4840916;29;20380;-76
2022/12/06 16:18:15;;;;;;;8.40;5.00;;;4.70;99.90;;;;;;4852799;29;20033;-76
2022/12/06 16:20:41;;;;;;;9.77;5.05;;;4.70;99.90;;;;;;4854012;29;20089;-75
2022/12/06 16:26:20;;;;;;;8.98;4.53;;;4.70;99.90;;;;;;4832790;29;20151;-77
2022/12/06 16:28:52;;;;;;;8.15;5.32;;;4.70;99.90;;;;;;4864786;29;20026;-78
2022/12/06 16:31:18;;;;;;;9.30;4.80;;;4.70;99.90;;;;;;4860395;29;20045;-78
2022/12/06 16:33:53;;;;;;;8.90;4.72;;;4.70;99.90;;;;;;4851027;29;20029;-77
2022/12/06 16:36:32;;;;;;;8.27;4.97;;;4.70;99.90;;;;;;4851851;29;20078;-77
2022/12/06 16:39:05;;;;;;;7.15;4.88;;;4.70;99.90;;;;;;4865548;29;20374;-78
2022/12/06 16:41:33;;;;;;;8.32;4.85;;;4.60;99.90;;;;;;4851880;29;20042;-77
2022/12/06 16:44:01;;;;;;;7.25;4.78;;;4.70;99.90;;;;;;4851560;29;20109;-77
2022/12/06 16:46:27;;;;;;;8.25;5.22;;;4.60;99.90;;;;;;4851692;29;20037;-74
2022/12/06 16:48:58;;;;;;;7.20;4.82;;;4.60;99.90;;;;;;4851203;29;20260;-76
2022/12/06 16:51:30;;;;;;;7.47;4.65;;;4.60;99.90;;;;;;4851711;29;20034;-75
2022/12/06 16:53:56;;;;;;;6.63;4.60;;;4.60;99.90;;;;;;4851424;29;20045;-76
2022/12/06 16:56:22;;;;;;;8.82;5.68;;;4.70;99.90;;;;;;4869788;29;20040;-79
2022/12/06 16:58:49;;;;;;;6.63;4.40;;;4.60;99.90;;;;;;4855791;29;20064;-78
2022/12/06 17:01:26;;;;;;;8.65;5.18;;;4.60;99.90;;;;;;4852583;29;20487;-78
2022/12/06 17:03:58;;;;;;;9.73;5.35;;;4.60;99.90;;;;;;4851508;29;20327;-76
2022/12/06 17:06:25;;;;;;;9.20;5.72;;;4.60;99.90;;;;;;4835578;29;20248;-78
2022/12/06 17:08:52;;;;;;;6.68;4.75;;;4.60;99.90;;;;;;4835103;29;20323;-77
2022/12/06 17:14:05;;;;;;;7.82;5.03;;;4.60;99.90;;;;;;4851823;29;20057;-77
2022/12/06 17:16:40;;;;;;;7.90;4.90;;;4.60;99.90;;;;;;4848926;29;20040;-77
2022/12/06 17:19:11;;;;;;;7.63;5.07;;;4.70;99.90;;;;;;4851054;29;20048;-76
2022/12/06 17:21:36;;;;;;;8.18;5.40;;;4.70;99.90;;;;;;4835463;29;20029;-77
2022/12/06 17:24:03;;;;;;;7.88;5.00;;;4.70;99.90;;;;;;4851009;29;20539;-75
2022/12/06 17:26:32;;;;;;;8.10;5.20;;;4.70;99.90;;;;;;4849765;29;20052;-77
2022/12/06 17:28:59;;;;;;;7.57;5.03;;;4.70;99.90;;;;;;4817922;29;20038;-76
2022/12/06 17:31:25;;;;;;;8.40;4.57;;;4.60;99.90;;;;;;4820511;29;20022;-76
2022/12/06 17:33:51;;;;;;;8.05;5.10;;;4.60;99.90;;;;;;4851171;29;20040;-77
2022/12/06 17:36:18;;;;;;;7.38;5.35;;;4.60;99.90;;;;;;4827464;29;20046;-77
2022/12/06 17:38:44;;;;;;;7.47;4.70;;;4.60;99.90;;;;;;4842625;29;20038;-78
2022/12/06 17:44:07;;;;;;;8.15;5.20;;;4.60;99.90;;;;;;4834652;29;20281;-75
2022/12/06 17:46:34;;;;;;;6.88;4.90;;;4.70;99.90;;;;;;4851000;29;20033;-75
2022/12/06 17:49:00;;;;;;;8.90;5.35;;;4.60;99.90;;;;;;4850620;29;20042;-75
2022/12/06 17:51:27;;;;;;;7.85;4.97;;;4.60;99.90;;;;;;4851200;29;20121;-76
2022/12/06 17:53:53;;;;;;;7.63;4.75;;;4.70;99.90;;;;;;4838460;29;20382;-76
2022/12/06 17:56:42;;;;;;;7.68;4.90;;;4.70;99.90;;;;;;4841963;29;20030;-75
2022/12/06 17:59:11;;;;;;;7.50;4.93;;;4.60;99.90;;;;;;4815316;29;20111;-77
2022/12/06 18:01:37;;;;;;;;;;;4.60;99.90;;;;;;4811475;29;20517;-75
2022/12/06 18:04:05;;;;;;;6.80;4.85;;;4.60;99.90;;;;;;4794314;30;19987;-77
2022/12/06 18:06:36;;;;;;;6.78;4.57;;;4.60;99.90;;;;;;4794502;30;20034;-77
2022/12/06 18:09:04;;;;;;;7.13;4.82;;;4.60;99.90;;;;;;4764149;30;20043;-76
2022/12/06 18:11:32;;;;;;;6.57;4.63;;;4.60;99.90;;;;;;4779307;30;20027;-77
2022/12/06 18:13:58;;;;;;;;;;;4.60;99.90;;;;;;4779811;30;20031;-76
2022/12/06 18:16:32;;;;;;;7.95;5.28;;;4.60;99.90;;;;;;4794183;30;19909;-76
2022/12/06 18:19:05;;;;;;;7.68;4.93;;;4.60;99.90;;;;;;4793977;30;20039;-77
2022/12/06 18:21:35;;;;;;;8.00;5.30;;;4.60;99.90;;;;;;4776000;30;20039;-77
2022/12/06 18:24:03;;;;;;;8.15;4.97;;;4.60;99.90;;;;;;4777381;30;20145;-76
2022/12/06 18:26:29;;;;;;;9.32;5.43;;;4.60;99.90;;;;;;4778870;30;20119;-80
2022/12/06 18:28:59;;;;;;;9.48;4.85;;;4.60;99.90;;;;;;4792902;30;20044;-76
2022/12/06 18:31:32;;;;;;;7.20;4.85;;;4.60;99.90;;;;;;4776427;30;20637;-75
2022/12/06 18:34:00;;;;;;;9.57;5.88;;;4.60;99.90;;;;;;4775456;30;20395;-76
2022/12/06 18:36:28;;;;;;;8.32;5.15;;;4.60;99.90;;;;;;4782643;29;20042;-76
2022/12/06 18:39:01;;;;;;;6.88;5.10;;;4.60;99.90;;;;;;4811542;29;20242;-77
2022/12/06 18:41:28;;;;;;;8.60;5.53;;;4.70;99.90;;;;;;4811890;29;20042;-76
2022/12/06 18:43:56;;;;;;;8.00;5.32;;;4.70;99.90;;;;;;4796201;29;20135;-77
2022/12/06 18:46:26;;;;;;;10.38;5.63;;;4.70;99.90;;;;;;4796620;29;20396;-78
2022/12/06 18:48:56;;;;;;;7.63;4.90;;;4.70;99.90;;;;;;4811865;29;20155;-76
2022/12/06 18:51:27;;;;;;;7.93;5.22;;;4.70;99.90;;;;;;4797430;29;20065;-77
2022/12/06 18:53:55;;;;;;;7.45;5.60;;;4.60;99.90;;;;;;4800950;29;20321;-75
2022/12/06 18:56:23;;;;;;;10.40;5.68;;;4.60;99.90;;;;;;4836648;29;20049;-77
2022/12/06 18:58:49;;;;;;;9.05;4.57;;;4.70;99.90;;;;;;4840306;29;20046;-76
2022/12/06 19:01:23;;;;;;;9.02;5.85;;;4.70;99.90;;;;;;4819384;29;20237;-76
2022/12/06 19:03:50;;;;;;;7.55;5.60;;;4.70;99.90;;;;;;4835126;29;20065;-77
2022/12/06 19:06:24;;;;;;;8.20;5.10;;;4.70;99.90;;;;;;4819203;29;20078;-76
2022/12/06 19:08:55;;;;;;;21.45;13.00;;;4.60;99.90;;;;;;4835247;29;20046;-75
2022/12/06 19:11:22;;;;;;;9.63;6.45;;;4.60;99.90;;;;;;4835430;29;20049;-76
2022/12/06 19:13:56;;;;;;;10.38;5.93;;;4.60;99.90;;;;;;4804045;29;20042;-77
2022/12/06 19:16:42;;;;;;;9.00;6.50;;;4.70;99.90;;;;;;4818948;29;20049;-77
2022/12/06 19:19:12;;;;;;;9.20;6.18;;;4.60;99.90;;;;;;4835117;29;20046;-77
2022/12/06 19:21:37;;;;;;;8.68;6.03;;;4.70;99.90;;;;;;4835128;29;20349;-78
2022/12/06 19:24:04;;;;;;;8.95;6.30;;;4.60;99.90;;;;;;4834449;29;20043;-78
2022/12/06 19:26:29;;;;;;;10.45;5.65;;;4.60;99.90;;;;;;4819187;29;20415;-76
2022/12/06 19:28:56;;;;;;;10.63;6.57;;;4.70;99.90;;;;;;4820551;29;20041;-77
2022/12/06 19:31:22;;;;;;;9.77;5.90;;;4.70;99.90;;;;;;4835002;29;20102;-77
2022/12/06 19:33:49;;;;;;;11.18;6.53;;;4.70;99.90;;;;;;4819308;29;20038;-76
2022/12/06 19:36:22;;;;;;;8.18;6.15;;;4.60;99.90;;;;;;4834603;29;20030;-78
2022/12/06 19:38:48;;;;;;;9.05;5.68;;;4.60;99.90;;;;;;4833992;29;20375;-76
2022/12/06 19:41:16;;;;;;;9.73;6.65;;;4.60;99.90;;;;;;4834600;29;20038;-77
2022/12/06 19:46:29;;;;;;;8.57;5.82;;;4.60;99.90;;;;;;4837038;29;20073;-76
2022/12/06 19:48:57;;;;;;;9.80;6.45;;;4.50;99.90;;;;;;4833454;29;20057;-76
2022/12/06 19:51:25;;;;;;;10.85;7.50;;;4.50;99.90;;;;;;4834556;29;20054;-76
2022/12/06 19:53:51;;;;;;;11.30;6.15;;;4.60;99.90;;;;;;4834498;29;20026;-75